Time;durP1;ratioP1;P1;durP2;ratioP2;P2;SDS_P1;SDS_P2;PMS_P1;PMS_P2;Temp;Humidity;BMP_temperature;BMP_pressure;BME280_temperature;BME280_humidity;BME280_pressure;Samples;Min_cycle;Max_cycle;Signal;HPM_P1;HPM_P2
2022/01/25 00:15:14;;;;;;;;;;;;;;;3.82;32.88;100926.94;4499212;31;34351;-83
2022/01/25 00:28:45;;;;;;;;;;;;;;;3.85;32.79;100914.31;4499270;31;34192;-84
2022/01/25 00:31:13;;;;;;;;;;;;;;;3.95;32.64;100917.53;4499347;31;34481;-84
2022/01/25 00:33:42;;;;;;;;;;;;;;;3.82;32.79;100918.34;4513045;31;34271;-84
2022/01/25 00:36:10;;;;;;;;;;;;;;;3.68;33.16;100921.69;4513396;31;33886;-85
2022/01/25 00:38:38;;;;;;;;;;;;;;;4.07;32.62;100926.03;4497923;31;35046;-83
2022/01/25 00:41:05;;;;;;;;;;;;;;;3.83;32.78;100918.47;4503023;31;34201;-84
2022/01/25 00:43:32;;;;;;;;;;;;;;;3.79;32.93;100919.06;4507563;31;33554;-85
2022/01/25 00:46:05;;;;;;;;;;;;;;;3.78;33.01;100921.50;4505964;31;34719;-84
2022/01/25 00:51:17;;;;;;;;;;;;;;;3.79;32.96;100913.94;4514386;31;34171;-86
2022/01/25 00:56:22;;;;;;;;;;;;;;;3.75;32.72;100913.59;4500267;31;34883;-84
2022/01/25 00:58:50;;;;;;;;;;;;;;;3.95;32.69;100909.81;4497704;31;34274;-84
2022/01/25 01:01:18;;;;;;;;;;;;;;;3.98;32.85;100902.31;4498727;31;33305;-84
2022/01/25 01:03:45;;;;;;;;;;;;;;;3.92;32.72;100896.78;4499028;31;34310;-84
2022/01/25 01:06:14;;;;;;;;;;;;;;;3.95;32.63;100897.00;4500636;31;34403;-85
2022/01/25 01:08:42;;;;;;;;;;;;;;;3.78;32.95;100899.28;4514352;31;34332;-83
2022/01/25 01:11:13;;;;;;;;;;;;;;;3.78;32.93;100901.84;4514153;31;34272;-85
2022/01/25 01:13:54;;;;;;;;;;;;;;;3.82;32.80;100897.81;4509691;31;34487;-83
2022/01/25 01:43:54;;;;;;;;;;;;;;;3.87;32.81;100856.31;4510546;31;33895;-83
2022/01/25 01:46:33;;;;;;;;;;;;;;;4.04;32.73;100857.41;4512692;31;33960;-84
2022/01/25 01:49:03;;;;;;;;;;;;;;;3.87;32.84;100855.44;4500857;31;34446;-84
2022/01/25 01:51:34;;;;;;;;;;;;;;;3.55;33.54;100846.44;4498414;31;33655;-85
2022/01/25 01:54:06;;;;;;;;;;;;;;;3.56;33.78;100842.19;4500846;31;34184;-86
2022/01/25 01:56:33;;;;;;;;;;;;;;;3.72;33.51;100839.91;4502842;31;35003;-84
2022/01/25 01:59:02;;;;;;;;;;;;;;;3.55;33.74;100840.44;4504399;31;34587;-84
2022/01/25 02:01:30;;;;;;;;;;;;;;;3.52;33.88;100837.66;4505335;31;34204;-85
2022/01/25 02:03:59;;;;;;;;;;;;;;;3.41;34.20;100845.53;4503512;31;33106;-84
2022/01/25 02:06:26;;;;;;;;;;;;;;;3.40;34.25;100840.28;4513854;31;34256;-84
2022/01/25 02:08:53;;;;;;;;;;;;;;;3.69;33.76;100834.56;4512684;31;35307;-84
2022/01/25 02:11:21;;;;;;;;;;;;;;;3.73;33.71;100831.41;4506203;31;34714;-84
2022/01/25 02:13:48;;;;;;;;;;;;;;;3.73;33.78;100833.09;4508890;31;34030;-84
2022/01/25 02:16:34;;;;;;;;;;;;;;;3.57;34.08;100824.38;4514803;31;35118;-84
2022/01/25 02:24:36;;;;;;;;;;;;;;;3.13;34.96;100831.59;4504199;31;33810;-84
2022/01/25 02:27:04;;;;;;;;;;;;;;;3.51;34.24;100823.06;4516237;31;34173;-84
2022/01/25 02:29:31;;;;;;;;;;;;;;;3.57;34.21;100818.38;4515743;31;34233;-83
2022/01/25 02:31:58;;;;;;;;;;;;;;;3.64;34.04;100811.19;4512154;31;33551;-84
2022/01/25 02:34:26;;;;;;;;;;;;;;;3.62;33.95;100814.41;4515956;31;34973;-84
2022/01/25 02:37:04;;;;;;;;;;;;;;;3.59;34.01;100806.50;4516044;31;34052;-84
2022/01/25 02:39:32;;;;;;;;;;;;;;;3.60;34.11;100804.06;4501368;31;34392;-84
2022/01/25 02:41:59;;;;;;;;;;;;;;;3.82;33.75;100798.66;4502392;31;34370;-84
2022/01/25 02:44:28;;;;;;;;;;;;;;;3.80;33.96;100792.56;4499634;31;33237;-84
2022/01/25 02:49:33;;;;;;;;;;;;;;;3.77;33.78;100792.34;4501741;31;34056;-84
2022/01/25 02:52:02;;;;;;;;;;;;;;;3.94;33.50;100788.34;4515347;31;35125;-84
2022/01/25 02:54:30;;;;;;;;;;;;;;;3.85;33.59;100780.03;4514713;31;34284;-84
2022/01/25 02:56:57;;;;;;;;;;;;;;;3.65;33.87;100787.31;4512311;31;34163;-84
2022/01/25 02:59:26;;;;;;;;;;;;;;;3.75;33.96;100786.25;4498489;31;34093;-84
2022/01/25 03:01:53;;;;;;;;;;;;;;;3.87;33.50;100784.47;4507684;31;35263;-84
2022/01/25 03:04:21;;;;;;;;;;;;;;;4.28;32.52;100785.34;4512652;31;34016;-84
2022/01/25 03:06:48;;;;;;;;;;;;;;;4.00;32.74;100782.69;4515619;31;34103;-84
2022/01/25 03:09:16;;;;;;;;;;;;;;;3.90;32.97;100789.81;4515472;31;34094;-84
2022/01/25 03:12:05;;;;;;;;;;;;;;;3.72;33.11;100780.91;4515201;31;35714;-84
2022/01/25 03:15:12;;;;;;;;;;;;;;;3.92;32.82;100781.31;4507596;31;33829;-84
2022/01/25 03:17:46;;;;;;;;;;;;;;;3.80;32.76;100781.41;4505091;31;34983;-85
2022/01/25 03:20:23;;;;;;;;;;;;;;;3.97;32.65;100777.34;4512346;31;35316;-84
2022/01/25 03:25:24;;;;;;;;;;;;;;;3.66;33.09;100763.44;4509092;31;34399;-84
2022/01/25 03:27:52;;;;;;;;;;;;;;;3.50;33.39;100767.47;4514881;31;33960;-84
2022/01/25 03:30:19;;;;;;;;;;;;;;;3.23;33.84;100754.56;4515256;31;35261;-84
2022/01/25 03:32:46;;;;;;;;;;;;;;;3.40;33.69;100760.81;4514702;31;34360;-84
2022/01/25 03:35:13;;;;;;;;;;;;;;;3.19;34.12;100767.09;4514973;31;34194;-83
2022/01/25 03:37:41;;;;;;;;;;;;;;;3.09;34.57;100760.44;4499681;31;33747;-84
2022/01/25 03:40:09;;;;;;;;;;;;;;;3.30;34.36;100756.75;4499565;31;35452;-84
2022/01/25 03:42:38;;;;;;;;;;;;;;;3.05;34.73;100753.31;4506038;31;33829;-84
2022/01/25 03:45:05;;;;;;;;;;;;;;;3.03;35.14;100745.53;4515567;31;34031;-84
2022/01/25 03:47:45;;;;;;;;;;;;;;;3.06;35.28;100744.84;4498258;31;34770;-84
2022/01/25 03:50:13;;;;;;;;;;;;;;;3.15;35.06;100740.34;4507845;31;34126;-83
2022/01/25 03:52:40;;;;;;;;;;;;;;;2.93;35.37;100745.69;4514861;31;34425;-84
2022/01/25 03:55:07;;;;;;;;;;;;;;;3.37;34.58;100738.44;4515244;31;34468;-84
2022/01/25 03:57:34;;;;;;;;;;;;;;;3.48;34.22;100745.94;4500529;31;34186;-84
2022/01/25 04:00:03;;;;;;;;;;;;;;;3.47;34.26;100734.78;4499325;31;35228;-84
2022/01/25 04:02:45;;;;;;;;;;;;;;;3.40;34.45;100728.37;4505571;31;34207;-84
2022/01/25 04:05:20;;;;;;;;;;;;;;;3.08;35.23;100738.16;4515171;31;32934;-84
2022/01/25 04:07:50;;;;;;;;;;;;;;;3.40;35.19;100728.37;4511181;31;33723;-84
2022/01/25 04:10:18;;;;;;;;;;;;;;;3.36;35.45;100721.25;4504901;31;34563;-84
2022/01/25 04:12:46;;;;;;;;;;;;;;;3.90;34.76;100717.97;4499159;31;34333;-84
2022/01/25 04:15:13;;;;;;;;;;;;;;;3.99;34.66;100712.53;4499521;31;33729;-84
2022/01/25 04:17:45;;;;;;;;;;;;;;;4.16;34.54;100711.00;4515097;31;34734;-84
2022/01/25 04:20:17;;;;;;;;;;;;;;;4.37;34.25;100712.38;4514994;31;34111;-86
2022/01/25 04:25:31;;;;;;;;;;;;;;;4.48;34.42;100714.72;4500447;31;34320;-84
2022/01/25 04:27:58;;;;;;;;;;;;;;;4.38;34.99;100702.97;4515167;31;34131;-84
2022/01/25 04:30:25;;;;;;;;;;;;;;;4.57;35.02;100700.75;4514904;31;34415;-84
2022/01/25 04:33:05;;;;;;;;;;;;;;;4.35;35.62;100692.50;4507025;31;34205;-85
2022/01/25 04:49:48;;;;;;;;;;;;;;;5.25;34.76;100668.78;4513292;31;34128;-84
2022/01/25 04:52:13;;;;;;;;;;;;;;;5.16;35.11;100669.16;4496783;31;34270;-84
2022/01/25 04:55:02;;;;;;;;;;;;;;;4.96;35.93;100664.50;4514512;31;34051;-84
2022/01/25 05:02:52;;;;;;;;;;;;;;;4.98;36.13;100662.94;4506896;31;33954;-87
2022/01/25 05:05:34;;;;;;;;;;;;;;;5.01;36.08;100658.84;4497698;31;34748;-84
2022/01/25 05:11:13;;;;;;;;;;;;;;;5.46;35.91;100646.00;4464907;32;34186;-83
2022/01/25 05:18:49;;;;;;;;;;;;;;;5.20;36.69;100637.69;4507662;31;34149;-84
2022/01/25 05:24:02;;;;;;;;;;;;;;;5.39;35.86;100643.87;4504676;31;34472;-84
2022/01/25 05:26:29;;;;;;;;;;;;;;;5.40;35.84;100630.22;4505509;31;34179;-83
2022/01/25 05:28:58;;;;;;;;;;;;;;;5.30;36.21;100627.13;4498670;31;33295;-83
2022/01/25 05:31:25;;;;;;;;;;;;;;;4.95;36.85;100637.03;4503641;31;34147;-83
2022/01/25 05:33:53;;;;;;;;;;;;;;;5.48;36.39;100631.53;4510782;31;34113;-84
2022/01/25 05:36:24;;;;;;;;;;;;;;;5.36;36.62;100637.75;4511323;31;35093;-84
2022/01/25 05:38:51;;;;;;;;;;;;;;;5.81;35.67;100633.41;4508502;31;33532;-85
2022/01/25 05:41:19;;;;;;;;;;;;;;;5.24;36.14;100631.03;4503873;31;33927;-85
2022/01/25 05:46:52;;;;;;;;;;;;;;;5.42;35.38;100626.03;4511097;31;34302;-84
2022/01/25 05:49:20;;;;;;;;;;;;;;;5.75;34.83;100622.75;4513326;31;33225;-84
2022/01/25 05:51:47;;;;;;;;;;;;;;;5.68;34.78;100617.19;4515958;31;34135;-84
2022/01/25 05:54:14;;;;;;;;;;;;;;;6.16;34.06;100615.56;4516197;31;34538;-84
2022/01/25 05:56:47;;;;;;;;;;;;;;;6.15;34.32;100619.84;4510565;31;34354;-85
2022/01/25 05:59:14;;;;;;;;;;;;;;;5.97;34.80;100618.84;4506993;31;34131;-85
2022/01/25 06:01:44;;;;;;;;;;;;;;;5.97;35.07;100618.84;4503303;31;34876;-84
2022/01/25 06:04:15;;;;;;;;;;;;;;;5.78;35.12;100615.22;4500128;31;35412;-84
2022/01/25 06:06:43;;;;;;;;;;;;;;;5.64;35.11;100618.72;4498754;31;33959;-83
2022/01/25 06:09:10;;;;;;;;;;;;;;;5.88;35.04;100610.59;4500102;31;33587;-86
2022/01/25 06:11:37;;;;;;;;;;;;;;;6.12;34.45;100616.19;4500159;31;34316;-84
2022/01/25 06:14:05;;;;;;;;;;;;;;;5.94;34.85;100613.50;4500145;31;34370;-84
2022/01/25 06:16:32;;;;;;;;;;;;;;;6.09;34.78;100619.50;4500197;31;34098;-84
2022/01/25 06:19:00;;;;;;;;;;;;;;;6.13;35.08;100618.84;4500189;31;33500;-83
2022/01/25 06:21:27;;;;;;;;;;;;;;;5.88;35.70;100610.59;4499940;31;35005;-82
2022/01/25 06:23:54;;;;;;;;;;;;;;;6.00;35.51;100609.59;4501692;31;33978;-83
2022/01/25 06:26:22;;;;;;;;;;;;;;;5.98;35.65;100605.16;4499899;31;35048;-83
2022/01/25 06:28:49;;;;;;;;;;;;;;;5.76;36.17;100601.41;4500474;31;33942;-83
2022/01/25 06:31:18;;;;;;;;;;;;;;;6.19;35.71;100601.16;4500082;31;34201;-84
2022/01/25 06:33:47;;;;;;;;;;;;;;;6.22;35.70;100595.31;4501297;31;34914;-84
2022/01/25 06:36:14;;;;;;;;;;;;;;;5.94;36.16;100598.06;4503722;31;34207;-83
2022/01/25 06:38:41;;;;;;;;;;;;;;;6.33;35.54;100595.06;4500068;31;33518;-83
2022/01/25 06:41:12;;;;;;;;;;;;;;;6.00;35.84;100594.16;4500113;31;33857;-83
2022/01/25 06:43:39;;;;;;;;;;;;;;;5.43;36.86;100596.94;4499948;31;34879;-83
2022/01/25 06:46:07;;;;;;;;;;;;;;;5.67;37.12;100598.31;4498796;31;34244;-85
2022/01/25 06:48:34;;;;;;;;;;;;;;;5.27;37.19;100598.66;4499876;31;33224;-83
2022/01/25 06:51:02;;;;;;;;;;;;;;;6.09;36.27;100604.03;4499650;31;34783;-83
2022/01/25 06:53:29;;;;;;;;;;;;;;;5.73;37.34;100598.66;4485521;31;34351;-83
2022/01/25 06:55:56;;;;;;;;;;;;;;;5.10;39.34;100599.37;4499712;31;34390;-84
2022/01/25 06:58:23;;;;;;;;;;;;;;;5.50;38.65;100601.66;4500018;31;33617;-83
2022/01/25 07:00:51;;;;;;;;;;;;;;;5.80;38.21;100603.34;4500086;31;33630;-83
2022/01/25 07:03:18;;;;;;;;;;;;;;;5.98;38.15;100594.84;4499820;31;35376;-83
2022/01/25 07:05:45;;;;;;;;;;;;;;;5.76;38.31;100591.09;4499779;31;34833;-83
2022/01/25 07:08:13;;;;;;;;;;;;;;;5.05;40.46;100588.84;4499918;31;33245;-83
2022/01/25 07:10:40;;;;;;;;;;;;;;;5.83;38.99;100593.22;4499585;31;33892;-83
2022/01/25 07:13:07;;;;;;;;;;;;;;;5.80;39.35;100587.00;4500104;31;34840;-83
2022/01/25 07:15:34;;;;;;;;;;;;;;;5.92;39.17;100585.13;4499726;31;34322;-83
2022/01/25 07:18:02;;;;;;;;;;;;;;;5.78;39.35;100581.75;4499673;31;33406;-83
2022/01/25 07:20:29;;;;;;;;;;;;;;;6.16;38.33;100590.69;4499691;31;34375;-83
2022/01/25 07:22:56;;;;;;;;;;;;;;;5.41;39.74;100585.69;4499704;31;35198;-83
2022/01/25 07:25:25;;;;;;;;;;;;;;;5.79;39.27;100586.09;4499529;31;35010;-83
2022/01/25 07:27:53;;;;;;;;;;;;;;;6.16;38.74;100590.69;4499805;31;33403;-83
2022/01/25 07:30:20;;;;;;;;;;;;;;;5.45;39.31;100587.62;4499546;31;34999;-83
2022/01/25 07:32:47;;;;;;;;;;;;;;;5.55;39.82;100579.63;4499550;31;34524;-83
2022/01/25 07:35:22;;;;;;;;;;;;;;;6.66;36.89;100574.41;4499852;31;33599;-83
2022/01/25 07:37:52;;;;;;;;;;;;;;;3.46;42.50;100596.25;4499527;31;33482;-85
2022/01/25 07:40:19;;;;;;;;;;;;;;;4.09;40.94;100595.94;4499389;31;34874;-83
2022/01/25 07:42:48;;;;;;;;;;;;;;;3.79;40.99;100600.97;4499654;31;34392;-83
2022/01/25 07:45:18;;;;;;;;;;;;;;;5.11;38.52;100589.19;4498169;31;33988;-83
2022/01/25 07:47:45;;;;;;;;;;;;;;;5.40;37.96;100587.38;4498294;31;34275;-83
2022/01/25 07:50:18;;;;;;;;;;;;;;;5.78;37.34;100586.03;4499529;31;35026;-83
2022/01/25 07:52:45;;;;;;;;;;;;;;;6.29;36.20;100595.69;4499239;31;34462;-83
2022/01/25 07:55:12;;;;;;;;;;;;;;;3.62;41.07;100601.56;4499538;31;34197;-84
2022/01/25 07:57:40;;;;;;;;;;;;;;;5.12;38.35;100590.97;4499522;31;33515;-84
2022/01/25 08:00:07;;;;;;;;;;;;;;;5.92;37.31;100584.22;4499291;31;34225;-83
2022/01/25 08:02:40;;;;;;;;;;;;;;;5.30;38.03;100591.12;4499437;31;34149;-83
2022/01/25 08:05:13;;;;;;;;;;;;;;;6.03;37.28;100588.28;4499517;31;34335;-83
2022/01/25 08:07:55;;;;;;;;;;;;;;;6.43;36.69;100583.53;4499243;31;32834;-83
2022/01/25 08:10:43;;;;;;;;;;;;;;;6.51;36.87;100578.78;4490392;31;34018;-83
2022/01/25 08:13:35;;;;;;;;;;;;;;;6.46;37.41;100582.81;4499481;31;34344;-83
2022/01/25 08:16:08;;;;;;;;;;;;;;;5.90;38.56;100586.69;4498277;31;34729;-83
2022/01/25 08:18:36;;;;;;;;;;;;;;;5.48;39.95;100580.09;4499316;31;32785;-84
2022/01/25 08:21:21;;;;;;;;;;;;;;;5.73;40.12;100570.34;4498382;31;34623;-83
2022/01/25 08:24:05;;;;;;;;;;;;;;;5.85;40.07;100573.56;4490116;31;33836;-83
2022/01/25 08:27:14;;;;;;;;;;;;;;;5.61;39.83;100561.97;4456726;32;34218;-83
2022/01/25 08:29:55;;;;;;;;;;;;;;;6.46;38.93;100555.34;4497138;31;34190;-83
2022/01/25 08:32:37;;;;;;;;;;;;;;;5.64;40.54;100558.66;4449381;32;34030;-83
2022/01/25 08:35:25;;;;;;;;;;;;;;;5.78;40.62;100565.44;4475042;31;34404;-83
2022/01/25 08:38:06;;;;;;;;;;;;;;;5.42;41.10;100561.72;4438137;32;33727;-83
2022/01/25 08:40:49;;;;;;;;;;;;;;;5.99;39.73;100565.75;4449801;32;33448;-84
2022/01/25 08:43:34;;;;;;;;;;;;;;;5.25;41.83;100558.22;4449995;32;34276;-83
2022/01/25 08:46:09;;;;;;;;;;;;;;;4.76;43.19;100556.31;4449425;32;34328;-83
2022/01/25 08:48:50;;;;;;;;;;;;;;;5.22;41.87;100561.50;4438414;32;33331;-84
2022/01/25 08:51:40;;;;;;;;;;;;;;;5.58;41.12;100557.53;4388321;32;33124;-83
2022/01/25 08:54:26;;;;;;;;;;;;;;;5.44;41.57;100555.87;4388434;32;33549;-83
2022/01/25 08:56:54;;;;;;;;;;;;;;;5.46;41.22;100556.84;4376003;32;33718;-83
2022/01/25 08:59:35;;;;;;;;;;;;;;;5.04;42.20;100560.47;4381709;32;34749;-83
2022/01/25 09:02:03;;;;;;;;;;;;;;;6.29;39.70;100559.66;4388267;32;33206;-83
2022/01/25 09:04:30;;;;;;;;;;;;;;;5.81;40.67;100558.78;4388246;32;34293;-83
2022/01/25 09:06:58;;;;;;;;;;;;;;;5.55;41.24;100551.31;4388477;32;34370;-83
2022/01/25 09:09:25;;;;;;;;;;;;;;;5.63;41.66;100560.34;4388243;32;34900;-83
2022/01/25 09:11:53;;;;;;;;;;;;;;;5.63;41.62;100562.91;4388278;32;32744;-83
2022/01/25 09:14:21;;;;;;;;;;;;;;;5.82;41.11;100572.53;4390085;32;34259;-83
2022/01/25 09:16:48;;;;;;;;;;;;;;;6.12;40.73;100567.28;4449697;32;35024;-83
2022/01/25 09:19:16;;;;;;;;;;;;;;;4.45;44.14;100573.28;4449445;32;34956;-83
2022/01/25 09:21:43;;;;;;;;;;;;;;;5.11;43.44;100567.72;4454138;31;33198;-83
2022/01/25 09:24:10;;;;;;;;;;;;;;;5.43;42.70;100566.09;4498607;31;34144;-83
2022/01/25 09:26:38;;;;;;;;;;;;;;;6.41;40.46;100567.13;4498675;31;34348;-83
2022/01/25 09:29:05;;;;;;;;;;;;;;;6.47;40.94;100566.53;4498841;31;34510;-83
2022/01/25 09:31:32;;;;;;;;;;;;;;;6.38;41.28;100556.66;4498847;31;34022;-84
2022/01/25 09:34:00;;;;;;;;;;;;;;;5.32;43.28;100556.09;4498931;31;33920;-83
2022/01/25 09:36:29;;;;;;;;;;;;;;;6.41;41.33;100550.78;4497373;31;33675;-83
2022/01/25 09:38:56;;;;;;;;;;;;;;;5.85;42.28;100557.25;4498490;31;34076;-83
2022/01/25 09:41:23;;;;;;;;;;;;;;;6.57;40.82;100543.91;4498464;31;34020;-83
2022/01/25 09:43:51;;;;;;;;;;;;;;;6.24;41.86;100543.03;4497024;31;34097;-83
2022/01/25 09:46:18;;;;;;;;;;;;;;;5.76;43.17;100538.75;4498465;31;34084;-83
2022/01/25 09:48:45;;;;;;;;;;;;;;;5.67;43.97;100539.13;4498161;31;33818;-84
2022/01/25 09:51:13;;;;;;;;;;;;;;;5.99;43.12;100540.91;4498280;31;33038;-83
2022/01/25 09:53:40;;;;;;;;;;;;;;;5.67;43.81;100531.41;4497038;31;34865;-83
2022/01/25 09:56:07;;;;;;;;;;;;;;;6.09;43.04;100530.25;4498138;31;34977;-83
2022/01/25 09:58:36;;;;;;;;;;;;;;;6.05;43.51;100530.03;4498088;31;34165;-83
2022/01/25 10:01:04;;;;;;;;;;;;;;;5.45;44.99;100520.75;4498131;31;34168;-83
2022/01/25 10:03:38;;;;;;;;;;;;;;;5.97;44.05;100521.00;4498192;31;33736;-83
2022/01/25 10:06:16;;;;;;;;;;;;;;;6.83;41.40;100511.69;4498134;31;34434;-83
2022/01/25 10:08:44;;;;;;;;;;;;;;;6.64;41.70;100523.59;4496748;31;34062;-83
2022/01/25 10:11:13;;;;;;;;;;;;;;;5.98;42.76;100513.34;4498045;31;33479;-83
2022/01/25 10:13:41;;;;;;;;;;;;;;;6.30;43.15;100507.31;4497923;31;35026;-83
2022/01/25 10:16:10;;;;;;;;;;;;;;;6.05;42.55;100509.44;4498005;31;34174;-83
2022/01/25 10:18:48;;;;;;;;;;;;;;;7.01;41.30;100508.28;4496777;31;35102;-83
2022/01/25 10:21:17;;;;;;;;;;;;;;;6.79;41.88;100504.63;4497052;31;33339;-83
2022/01/25 10:24:11;;;;;;;;;;;;;;;6.97;41.47;100509.81;4497822;31;34277;-83
2022/01/25 10:26:54;;;;;;;;;;;;;;;6.75;41.87;100494.97;4497771;31;34509;-83
2022/01/25 10:29:25;;;;;;;;;;;;;;;5.72;44.39;100495.63;4497810;31;34245;-84
2022/01/25 10:31:56;;;;;;;;;;;;;;;4.82;46.73;100497.56;4498159;31;34226;-83
2022/01/25 10:34:25;;;;;;;;;;;;;;;5.46;45.52;100496.81;4500104;31;34212;-83
2022/01/25 10:36:53;;;;;;;;;;;;;;;6.52;43.49;100487.81;4499884;31;34292;-83
2022/01/25 10:39:21;;;;;;;;;;;;;;;6.28;43.70;100483.16;4498693;31;34546;-83
2022/01/25 10:41:49;;;;;;;;;;;;;;;5.24;46.05;100482.78;4499938;31;32880;-83
2022/01/25 10:44:16;;;;;;;;;;;;;;;6.19;44.10;100477.56;4500110;31;34838;-83
2022/01/25 10:46:43;;;;;;;;;;;;;;;6.01;44.15;100485.22;4500035;31;34462;-84
2022/01/25 10:49:15;;;;;;;;;;;;;;;6.06;44.72;100490.59;4499971;31;34187;-83
2022/01/25 10:51:48;;;;;;;;;;;;;;;7.40;42.21;100480.87;4499827;31;33080;-83
2022/01/25 10:54:23;;;;;;;;;;;;;;;5.44;45.99;100476.16;4499906;31;35000;-83
2022/01/25 10:56:56;;;;;;;;;;;;;;;6.16;44.41;100482.53;4499781;31;34413;-83
2022/01/25 10:59:29;;;;;;;;;;;;;;;5.76;45.75;100475.31;4500389;31;34845;-83
2022/01/25 11:01:57;;;;;;;;;;;;;;;7.38;42.25;100473.88;4499995;31;33929;-83
2022/01/25 11:04:26;;;;;;;;;;;;;;;6.23;44.07;100465.72;4499646;31;34162;-83
2022/01/25 11:06:55;;;;;;;;;;;;;;;6.25;44.63;100470.16;4499868;31;34297;-83
2022/01/25 11:09:23;;;;;;;;;;;;;;;7.53;41.47;100462.56;4498584;31;34210;-84
2022/01/25 11:11:53;;;;;;;;;;;;;;;5.99;44.50;100468.81;4499750;31;33905;-83
2022/01/25 11:17:06;;;;;;;;;;;;;;;7.12;42.50;100458.06;4499680;31;33418;-84
2022/01/25 11:19:34;;;;;;;;;;;;;;;7.69;41.37;100453.84;4499830;31;34018;-85
2022/01/25 11:22:01;;;;;;;;;;;;;;;7.89;40.78;100452.12;4499749;31;34350;-83
2022/01/25 11:24:31;;;;;;;;;;;;;;;7.35;42.17;100455.66;4499456;31;35072;-83
2022/01/25 11:27:03;;;;;;;;;;;;;;;6.37;44.63;100457.00;4499505;31;34481;-83
2022/01/25 11:29:31;;;;;;;;;;;;;;;6.00;46.00;100451.69;4499666;31;34330;-83
2022/01/25 11:32:00;;;;;;;;;;;;;;;6.04;45.69;100445.88;4499968;31;34549;-84
2022/01/25 11:34:28;;;;;;;;;;;;;;;7.52;42.56;100434.13;4498301;31;34237;-83
2022/01/25 11:36:57;;;;;;;;;;;;;;;7.82;41.66;100436.31;4499565;31;35330;-83
2022/01/25 11:39:25;;;;;;;;;;;;;;;7.83;41.81;100433.78;4498237;31;34470;-84
2022/01/25 11:42:02;;;;;;;;;;;;;;;7.07;43.40;100434.63;4498415;31;34062;-84
2022/01/25 11:44:31;;;;;;;;;;;;;;;7.68;42.03;100426.22;4498675;31;34375;-83
2022/01/25 11:47:06;;;;;;;;;;;;;;;6.58;44.34;100436.56;4499749;31;34148;-83
2022/01/25 11:49:34;;;;;;;;;;;;;;;6.97;44.14;100434.13;4498452;31;34246;-83
2022/01/25 11:52:05;;;;;;;;;;;;;;;7.85;41.84;100423.53;4499774;31;34338;-84
2022/01/25 11:54:34;;;;;;;;;;;;;;;6.68;44.46;100430.19;4499340;31;34802;-83
2022/01/25 11:57:15;;;;;;;;;;;;;;;7.01;43.79;100433.50;4499335;31;35252;-83
2022/01/25 11:59:55;;;;;;;;;;;;;;;7.44;43.10;100431.19;4498239;31;34839;-83
2022/01/25 12:03:01;;;;;;;;;;;;;;;7.91;42.17;100429.81;4499408;31;32917;-83
2022/01/25 12:05:29;;;;;;;;;;;;;;;7.80;41.85;100421.62;4465389;32;34014;-83
2022/01/25 12:08:14;;;;;;;;;;;;;;;8.82;40.00;100410.37;4493599;31;34037;-83
2022/01/25 12:10:43;;;;;;;;;;;;;;;8.91;39.94;100411.62;4498998;31;33902;-84
2022/01/25 12:13:15;;;;;;;;;;;;;;;8.86;39.75;100401.91;4499393;31;33458;-84
2022/01/25 12:15:43;;;;;;;;;;;;;;;8.83;39.74;100404.41;4499601;31;34384;-84
2022/01/25 12:18:30;;;;;;;;;;;;;;;8.99;39.79;100399.00;4499312;31;35081;-84
2022/01/25 12:20:58;;;;;;;;;;;;;;;9.22;39.19;100403.34;4499376;31;34549;-84
2022/01/25 12:23:42;;;;;;;;;;;;;;;8.11;41.67;100402.28;4499273;31;34375;-83
2022/01/25 12:26:15;;;;;;;;;;;;;;;9.09;39.57;100392.44;4499376;31;33987;-83
2022/01/25 12:28:50;;;;;;;;;;;;;;;8.05;42.11;100396.84;4499307;31;35379;-83
2022/01/25 12:31:17;;;;;;;;;;;;;;;7.27;44.26;100394.31;4499372;31;33971;-84
2022/01/25 12:33:46;;;;;;;;;;;;;;;7.78;43.06;100386.22;4499225;31;33713;-83
2022/01/25 12:36:13;;;;;;;;;;;;;;;8.63;41.22;100378.59;4499608;31;34922;-84
2022/01/25 12:38:46;;;;;;;;;;;;;;;8.57;41.21;100382.69;4499086;31;34161;-84
2022/01/25 12:41:15;;;;;;;;;;;;;;;8.93;40.50;100372.87;4499240;31;35033;-84
2022/01/25 12:43:45;;;;;;;;;;;;;;;9.44;39.29;100363.59;4498067;31;34216;-83
2022/01/25 12:46:12;;;;;;;;;;;;;;;8.63;40.83;100363.09;4498989;31;33634;-83
2022/01/25 12:48:41;;;;;;;;;;;;;;;9.37;39.23;100355.56;4499145;31;34389;-84
2022/01/25 12:51:10;;;;;;;;;;;;;;;7.75;42.44;100365.44;4499065;31;35030;-84
2022/01/25 12:53:41;;;;;;;;;;;;;;;7.02;44.98;100386.25;4498948;31;33161;-84
2022/01/25 12:56:14;;;;;;;;;;;;;;;7.66;43.70;100371.09;4498805;31;34380;-84
2022/01/25 12:58:42;;;;;;;;;;;;;;;8.02;42.73;100366.59;4497677;31;35219;-84
2022/01/25 13:01:11;;;;;;;;;;;;;;;8.33;42.25;100357.53;4497561;31;34060;-84
2022/01/25 13:03:43;;;;;;;;;;;;;;;8.64;41.19;100362.28;4497828;31;33210;-84
2022/01/25 13:06:13;;;;;;;;;;;;;;;8.66;41.44;100358.06;4499001;31;34025;-83
2022/01/25 13:08:46;;;;;;;;;;;;;;;8.97;40.69;100351.47;4498610;31;34145;-83
2022/01/25 13:11:16;;;;;;;;;;;;;;;9.42;39.73;100348.84;4498784;31;33574;-84
2022/01/25 13:13:56;;;;;;;;;;;;;;;8.07;42.69;100348.75;4499115;31;34442;-84
2022/01/25 13:16:38;;;;;;;;;;;;;;;8.07;42.94;100355.59;4498954;31;34204;-84
2022/01/25 13:19:05;;;;;;;;;;;;;;;8.71;41.35;100340.12;4498920;31;35231;-84
2022/01/25 13:21:39;;;;;;;;;;;;;;;8.51;41.80;100334.19;4498709;31;34979;-84
2022/01/25 13:24:30;;;;;;;;;;;;;;;9.34;40.21;100334.75;4498686;31;33183;-84
2022/01/25 13:27:00;;;;;;;;;;;;;;;9.30;40.42;100323.41;4498851;31;34190;-85
2022/01/25 13:32:20;;;;;;;;;;;;;;;9.65;39.72;100321.19;4498584;31;34244;-84
2022/01/25 13:35:12;;;;;;;;;;;;;;;9.34;40.27;100319.22;4498628;31;33642;-84
2022/01/25 13:37:40;;;;;;;;;;;;;;;9.60;40.02;100321.03;4498511;31;34862;-83
2022/01/25 13:40:07;;;;;;;;;;;;;;;9.77;39.61;100307.78;4498477;31;34040;-84
2022/01/25 13:48:10;;;;;;;;;;;;;;;9.40;40.64;100303.91;4498424;31;34081;-84
2022/01/25 13:50:38;;;;;;;;;;;;;;;9.47;40.45;100290.34;4496748;31;34080;-83
2022/01/25 13:53:05;;;;;;;;;;;;;;;9.14;40.72;100290.03;4498205;31;34039;-84
2022/01/25 13:55:33;;;;;;;;;;;;;;;7.75;44.70;100298.31;4498412;31;33610;-84
2022/01/25 13:58:00;;;;;;;;;;;;;;;7.47;45.53;100299.75;4496871;31;34163;-84
2022/01/25 14:00:27;;;;;;;;;;;;;;;6.47;47.54;100308.94;4498447;31;33833;-83
2022/01/25 14:02:55;;;;;;;;;;;;;;;8.15;43.87;100298.28;4497014;31;35197;-84
2022/01/25 14:05:23;;;;;;;;;;;;;;;8.07;44.16;100286.75;4497857;31;35132;-84
2022/01/25 14:07:54;;;;;;;;;;;;;;;7.50;45.63;100286.06;4499623;31;33725;-84
2022/01/25 14:10:26;;;;;;;;;;;;;;;8.30;43.79;100282.53;4500360;31;34288;-84
2022/01/25 14:24:04;;;;;;;;;;;;;;;7.01;46.72;100283.94;4498614;31;34294;-84
2022/01/25 14:26:32;;;;;;;;;;;;;;;7.67;45.34;100285.09;4499856;31;33690;-83
2022/01/25 14:29:12;;;;;;;;;;;;;;;8.26;44.09;100286.69;4501228;31;35177;-84
2022/01/25 14:31:42;;;;;;;;;;;;;;;7.83;45.32;100288.31;4514973;31;34575;-84
2022/01/25 14:34:10;;;;;;;;;;;;;;;8.71;43.30;100284.16;4500068;31;34964;-84
2022/01/25 14:36:39;;;;;;;;;;;;;;;8.64;43.40;100266.66;4499854;31;33737;-84
2022/01/25 14:39:06;;;;;;;;;;;;;;;7.91;45.32;100279.19;4499813;31;35203;-84
2022/01/25 14:41:34;;;;;;;;;;;;;;;8.20;44.62;100282.97;4498620;31;34251;-84
2022/01/25 14:44:04;;;;;;;;;;;;;;;8.49;44.06;100284.16;4499806;31;34299;-83
2022/01/25 14:46:35;;;;;;;;;;;;;;;9.01;42.78;100279.22;4499731;31;33115;-83
2022/01/25 14:49:09;;;;;;;;;;;;;;;8.26;44.66;100288.37;4498652;31;33508;-84
2022/01/25 14:51:47;;;;;;;;;;;;;;;8.21;44.91;100280.44;4499396;31;34515;-83
2022/01/25 14:54:21;;;;;;;;;;;;;;;8.52;44.20;100287.75;4498558;31;34410;-84
2022/01/25 14:56:52;;;;;;;;;;;;;;;8.21;45.05;100290.75;4499792;31;33705;-83
2022/01/25 14:59:23;;;;;;;;;;;;;;;9.33;42.31;100295.03;4499823;31;34967;-84
2022/01/25 15:02:11;;;;;;;;;;;;;;;8.61;43.93;100299.25;4499726;31;34141;-84
2022/01/25 15:04:44;;;;;;;;;;;;;;;8.63;44.41;100297.59;4499557;31;33934;-84
2022/01/25 15:07:20;;;;;;;;;;;;;;;8.49;44.65;100291.91;4498472;31;33586;-84
2022/01/25 15:09:50;;;;;;;;;;;;;;;7.77;46.39;100296.72;4498297;31;33949;-84
2022/01/25 15:12:19;;;;;;;;;;;;;;;7.73;46.61;100300.84;4499483;31;35273;-84
2022/01/25 15:17:29;;;;;;;;;;;;;;;8.60;44.51;100293.22;4499275;31;33515;-84